Time;durP1;ratioP1;P1;durP2;ratioP2;P2;SDS_P1;SDS_P2;PMS_P1;PMS_P2;Temp;Humidity;BMP_temperature;BMP_pressure;BME280_temperature;BME280_humidity;BME280_pressure;Samples;Min_cycle;Max_cycle;Signal;HPM_P1;HPM_P2
2021/10/15 00:01:06;;;;;;;;;;;;;;;9.51;100.00;100220.02;1669199;84;20279;-79
2021/10/15 00:03:33;;;;;;;;;;;;;;;9.51;100.00;100216.07;1664014;85;20189;-79
2021/10/15 00:05:59;;;;;;;;;;;;;;;9.55;100.00;100212.14;1665707;84;22038;-79
2021/10/15 00:08:24;;;;;;;;;;;;;;;9.58;100.00;100214.48;1666463;84;20141;-78
2021/10/15 00:10:53;;;;;;;;;;;;;;;9.49;100.00;100216.22;1666031;84;20255;-78
2021/10/15 00:13:20;;;;;;;;;;;;;;;9.40;100.00;100205.70;1638517;85;20177;-79
2021/10/15 00:15:50;;;;;;;;;;;;;;;9.51;100.00;100214.75;1665962;84;20182;-78
2021/10/15 00:18:19;;;;;;;;;;;;;;;9.42;100.00;100209.86;1663552;84;21097;-79
2021/10/15 00:20:46;;;;;;;;;;;;;;;9.50;100.00;100211.77;1663556;84;20155;-79
2021/10/15 00:23:13;;;;;;;;;;;;;;;9.46;100.00;100202.48;1666988;84;20519;-78
2021/10/15 00:25:38;;;;;;;;;;;;;;;9.44;100.00;100209.72;1665038;84;20223;-77
2021/10/15 00:28:04;;;;;;;;;;;;;;;9.42;100.00;100211.68;1685093;83;20429;-77
2021/10/15 00:30:33;;;;;;;;;;;;;;;9.44;100.00;100208.40;1664411;84;21894;-77
2021/10/15 00:33:02;;;;;;;;;;;;;;;9.51;100.00;100202.89;1667869;84;20148;-77
2021/10/15 00:35:32;;;;;;;;;;;;;;;9.58;100.00;100197.34;1666057;84;21103;-78
2021/10/15 00:37:57;;;;;;;;;;;;;;;9.60;100.00;100203.31;1668378;84;20160;-77
2021/10/15 00:40:23;;;;;;;;;;;;;;;9.68;100.00;100194.17;1668038;83;20325;-77
2021/10/15 00:42:53;;;;;;;;;;;;;;;9.66;100.00;100198.77;1666400;84;21044;-77
2021/10/15 00:45:18;;;;;;;;;;;;;;;9.69;100.00;100195.84;1666635;84;20193;-78
2021/10/15 00:47:47;;;;;;;;;;;;;;;9.62;100.00;100190.81;1676558;83;20206;-78
2021/10/15 00:50:15;;;;;;;;;;;;;;;9.65;100.00;100189.19;1680084;83;20123;-78
2021/10/15 00:52:45;;;;;;;;;;;;;;;9.71;100.00;100185.14;1679907;83;20212;-78
2021/10/15 00:55:12;;;;;;;;;;;;;;;9.64;100.00;100185.39;1678968;83;20892;-78
2021/10/15 00:57:38;;;;;;;;;;;;;;;9.62;100.00;100186.85;1678396;83;20532;-79
2021/10/15 01:00:05;;;;;;;;;;;;;;;9.57;100.00;100182.52;1672579;83;20759;-78
2021/10/15 01:02:32;;;;;;;;;;;;;;;9.54;100.00;100184.14;1679705;83;20179;-78
2021/10/15 01:05:00;;;;;;;;;;;;;;;9.53;100.00;100175.38;1678930;83;20342;-79
2021/10/15 01:07:27;;;;;;;;;;;;;;;9.59;100.00;100176.61;1656941;85;21123;-78
2021/10/15 01:09:59;;;;;;;;;;;;;;;9.52;100.00;100171.11;1680695;83;20211;-80
2021/10/15 01:12:26;;;;;;;;;;;;;;;9.54;100.00;100177.55;1681242;83;20532;-80
2021/10/15 01:14:55;;;;;;;;;;;;;;;9.57;100.00;100173.30;1679218;83;20648;-79
2021/10/15 01:17:21;;;;;;;;;;;;;;;9.61;100.00;100169.86;1678016;83;20539;-79
2021/10/15 01:19:54;;;;;;;;;;;;;;;9.65;100.00;100170.73;1679260;83;21958;-79
2021/10/15 01:22:19;;;;;;;;;;;;;;;9.57;100.00;100160.12;1653120;84;20576;-79
2021/10/15 01:24:50;;;;;;;;;;;;;;;9.60;100.00;100161.14;1679670;83;20655;-80
2021/10/15 01:27:17;;;;;;;;;;;;;;;9.52;100.00;100162.35;1676333;83;20492;-79
2021/10/15 01:29:43;;;;;;;;;;;;;;;9.50;100.00;100159.05;1679008;83;20139;-79
2021/10/15 01:32:13;;;;;;;;;;;;;;;9.55;100.00;100157.28;1678842;83;22171;-79
2021/10/15 01:34:39;;;;;;;;;;;;;;;9.58;100.00;100158.30;1688088;83;20144;-78
2021/10/15 01:37:06;;;;;;;;;;;;;;;9.58;100.00;100155.66;1685909;83;20306;-79
2021/10/15 01:39:32;;;;;;;;;;;;;;;9.52;100.00;100154.44;1683053;84;20195;-78
2021/10/15 01:42:02;;;;;;;;;;;;;;;9.56;100.00;100154.49;1685765;83;20356;-79
2021/10/15 01:44:28;;;;;;;;;;;;;;;9.51;100.00;100155.44;1687404;83;20972;-78
2021/10/15 01:46:56;;;;;;;;;;;;;;;9.48;100.00;100147.83;1652913;85;20791;-77
2021/10/15 01:49:22;;;;;;;;;;;;;;;9.51;100.00;100147.53;1660065;83;20536;-77
2021/10/15 01:51:48;;;;;;;;;;;;;;;9.43;100.00;100145.64;1684737;83;20112;-78
2021/10/15 01:54:13;;;;;;;;;;;;;;;9.48;100.00;100150.47;1683660;83;20166;-79
2021/10/15 01:56:39;;;;;;;;;;;;;;;9.54;100.00;100145.91;1684755;83;21846;-77
2021/10/15 01:59:05;;;;;;;;;;;;;;;9.62;100.00;100143.84;1685195;83;20166;-77
2021/10/15 02:01:33;;;;;;;;;;;;;;;9.67;100.00;100142.40;1683361;83;20190;-78
2021/10/15 02:03:58;;;;;;;;;;;;;;;9.70;100.00;100143.42;1687277;83;20204;-79
2021/10/15 02:06:26;;;;;;;;;;;;;;;9.62;100.00;100140.71;1672664;83;20697;-77
2021/10/15 02:08:53;;;;;;;;;;;;;;;9.61;100.00;100143.00;1686250;83;21066;-79
2021/10/15 02:11:19;;;;;;;;;;;;;;;9.67;100.00;100145.53;1688602;83;20215;-79
2021/10/15 02:13:47;;;;;;;;;;;;;;;9.72;100.00;100141.95;1685659;83;20483;-79
2021/10/15 02:16:14;;;;;;;;;;;;;;;9.70;100.00;100142.09;1686681;83;20203;-79
2021/10/15 02:18:41;;;;;;;;;;;;;;;9.65;100.00;100140.91;1685299;83;20203;-77
2021/10/15 02:21:07;;;;;;;;;;;;;;;9.61;100.00;100136.41;1685207;83;21075;-78
2021/10/15 02:23:32;;;;;;;;;;;;;;;9.59;100.00;100134.42;1682311;83;20269;-77
2021/10/15 02:25:58;;;;;;;;;;;;;;;9.63;100.00;100130.52;1684237;83;20193;-78
2021/10/15 02:28:23;;;;;;;;;;;;;;;9.60;100.00;100132.61;1660720;83;20579;-78
2021/10/15 02:30:51;;;;;;;;;;;;;;;9.66;100.00;100135.48;1683588;85;20154;-78
2021/10/15 02:33:17;;;;;;;;;;;;;;;9.65;100.00;100133.82;1652795;83;20183;-79
2021/10/15 02:35:43;;;;;;;;;;;;;;;9.71;100.00;100135.03;1676752;83;20171;-77
2021/10/15 02:38:11;;;;;;;;;;;;;;;9.64;100.00;100138.75;1634128;83;20216;-78
2021/10/15 02:40:38;;;;;;;;;;;;;;;9.62;100.00;100131.48;1677907;83;20721;-78
2021/10/15 02:43:03;;;;;;;;;;;;;;;9.55;100.00;100130.41;1653484;83;20174;-77
2021/10/15 02:45:29;;;;;;;;;;;;;;;9.64;100.00;100126.88;1680161;83;21049;-77
2021/10/15 02:47:56;;;;;;;;;;;;;;;9.73;100.00;100125.66;1677357;83;20162;-79
2021/10/15 02:50:23;;;;;;;;;;;;;;;9.74;100.00;100130.78;1680649;83;20159;-78
2021/10/15 02:52:49;;;;;;;;;;;;;;;9.74;100.00;100128.61;1678298;83;20150;-78
2021/10/15 02:55:14;;;;;;;;;;;;;;;9.78;100.00;100128.16;1677088;84;20130;-78
2021/10/15 02:57:41;;;;;;;;;;;;;;;9.72;100.00;100125.31;1676121;83;21167;-79
2021/10/15 03:00:07;;;;;;;;;;;;;;;9.75;100.00;100131.09;1675797;85;20208;-79
2021/10/15 03:02:33;;;;;;;;;;;;;;;9.73;100.00;100126.98;1677753;83;20175;-79
2021/10/15 03:05:04;;;;;;;;;;;;;;;9.80;100.00;100126.69;1679836;85;20634;-79
2021/10/15 03:07:29;;;;;;;;;;;;;;;9.84;100.00;100118.82;1676833;83;20163;-79
2021/10/15 03:09:58;;;;;;;;;;;;;;;9.84;100.00;100119.64;1677296;83;21110;-79
2021/10/15 03:12:27;;;;;;;;;;;;;;;9.84;100.00;100113.55;1677595;83;20318;-80
2021/10/15 03:14:54;;;;;;;;;;;;;;;9.83;100.00;100117.97;1676642;83;20268;-78
2021/10/15 03:17:21;;;;;;;;;;;;;;;9.88;100.00;100112.24;1652758;83;20204;-78
2021/10/15 03:19:46;;;;;;;;;;;;;;;9.78;100.00;100114.97;1652027;85;20227;-78
2021/10/15 03:22:12;;;;;;;;;;;;;;;9.84;100.00;100109.09;1677441;83;21147;-78
2021/10/15 03:24:38;;;;;;;;;;;;;;;9.95;100.00;100115.94;1680502;83;20471;-78
2021/10/15 03:27:07;;;;;;;;;;;;;;;9.87;100.00;100114.56;1675146;83;20151;-78
2021/10/15 03:29:34;;;;;;;;;;;;;;;9.86;100.00;100112.39;1676261;83;20151;-79
2021/10/15 03:32:01;;;;;;;;;;;;;;;9.98;100.00;100115.63;1634955;86;20243;-78
2021/10/15 03:34:27;;;;;;;;;;;;;;;9.99;100.00;100119.94;1652484;84;21085;-79
2021/10/15 03:36:54;;;;;;;;;;;;;;;9.96;100.00;100121.56;1648572;86;20280;-78
2021/10/15 03:39:20;;;;;;;;;;;;;;;10.01;100.00;100117.97;1623474;86;20358;-78
2021/10/15 03:41:45;;;;;;;;;;;;;;;9.90;100.00;100114.26;1618654;86;21566;-79
2021/10/15 03:44:11;;;;;;;;;;;;;;;9.98;100.00;100113.00;1626394;86;20147;-78
2021/10/15 03:46:36;;;;;;;;;;;;;;;9.94;100.00;100093.17;1626878;86;21168;-80
2021/10/15 03:49:03;;;;;;;;;;;;;;;10.08;100.00;100104.16;1625707;86;20453;-78
2021/10/15 03:51:29;;;;;;;;;;;;;;;10.09;100.00;100104.00;1618424;87;20203;-78
2021/10/15 03:53:56;;;;;;;;;;;;;;;10.05;100.00;100094.73;1622349;86;21272;-78
2021/10/15 03:56:21;;;;;;;;;;;;;;;10.17;100.00;100099.28;1623273;86;20223;-78
2021/10/15 03:58:48;;;;;;;;;;;;;;;10.21;100.00;100102.77;1627225;86;21916;-78
2021/10/15 04:01:15;;;;;;;;;;;;;;;10.23;100.00;100097.34;1628069;86;20200;-78
2021/10/15 04:03:41;;;;;;;;;;;;;;;10.27;100.00;100096.53;1625497;87;20181;-78
2021/10/15 04:06:08;;;;;;;;;;;;;;;10.20;100.00;100099.78;1627302;86;20441;-81
2021/10/15 04:08:36;;;;;;;;;;;;;;;10.28;100.00;100102.97;1621852;86;20139;-78
2021/10/15 04:11:02;;;;;;;;;;;;;;;10.19;100.00;100106.53;1626102;86;21250;-78
2021/10/15 04:13:29;;;;;;;;;;;;;;;10.24;100.00;100099.83;1627465;86;20668;-78
2021/10/15 04:15:56;;;;;;;;;;;;;;;10.29;100.00;100100.68;1583584;86;20204;-77
2021/10/15 04:18:22;;;;;;;;;;;;;;;10.37;100.00;100098.61;1624389;87;20167;-78
2021/10/15 04:20:49;;;;;;;;;;;;;;;10.25;100.00;100096.68;1629179;86;20198;-78
2021/10/15 04:23:15;;;;;;;;;;;;;;;10.36;100.00;100089.88;1624517;86;21096;-78
2021/10/15 04:25:42;;;;;;;;;;;;;;;10.33;100.00;100098.11;1628963;86;20159;-77
2021/10/15 04:28:08;;;;;;;;;;;;;;;10.43;100.00;100098.48;1645892;85;20175;-78
2021/10/15 04:30:35;;;;;;;;;;;;;;;10.43;100.00;100103.77;1639261;86;21156;-78
2021/10/15 04:33:03;;;;;;;;;;;;;;;10.39;100.00;100094.84;1646634;86;20233;-78
2021/10/15 04:35:29;;;;;;;;;;;;;;;10.35;100.00;100100.09;1678416;83;20203;-78
2021/10/15 04:37:54;;;;;;;;;;;;;;;10.34;100.00;100095.78;1676737;83;20197;-78
2021/10/15 04:40:21;;;;;;;;;;;;;;;10.43;100.00;100098.48;1663596;84;20185;-78
2021/10/15 04:42:48;;;;;;;;;;;;;;;10.46;100.00;100091.58;1676882;85;20240;-78
2021/10/15 04:45:15;;;;;;;;;;;;;;;10.46;100.00;100095.03;1646377;83;20194;-78
2021/10/15 04:47:43;;;;;;;;;;;;;;;10.39;100.00;100097.48;1648552;83;21227;-78
2021/10/15 04:50:12;;;;;;;;;;;;;;;10.46;100.00;100084.98;1677694;83;20167;-79
2021/10/15 04:52:38;;;;;;;;;;;;;;;10.39;100.00;100086.92;1680010;83;20207;-77
2021/10/15 04:55:08;;;;;;;;;;;;;;;10.34;100.00;100082.58;1673393;83;20183;-79
2021/10/15 04:57:34;;;;;;;;;;;;;;;10.37;100.00;100083.59;1681416;83;20175;-77
2021/10/15 05:00:00;;;;;;;;;;;;;;;10.43;100.00;100076.05;1680252;83;20758;-79
2021/10/15 05:02:26;;;;;;;;;;;;;;;10.37;100.00;100083.59;1683290;83;20163;-77
2021/10/15 05:04:54;;;;;;;;;;;;;;;10.22;100.00;100079.84;1652711;84;20266;-76
2021/10/15 05:07:25;;;;;;;;;;;;;;;10.28;100.00;100079.22;1682516;83;20499;-78
2021/10/15 05:09:51;;;;;;;;;;;;;;;10.36;100.00;100079.31;1681675;83;20195;-77
2021/10/15 05:12:20;;;;;;;;;;;;;;;10.26;100.00;100082.52;1682278;83;20226;-77
2021/10/15 05:14:54;;;;;;;;;;;;;;;10.30;100.00;100079.91;1679858;84;20124;-77
2021/10/15 05:17:24;;;;;;;;;;;;;;;10.22;100.00;100088.61;1684354;83;20326;-78
2021/10/15 05:19:51;;;;;;;;;;;;;;;10.14;100.00;100082.44;1679833;84;20230;-81
2021/10/15 05:22:17;;;;;;;;;;;;;;;10.18;100.00;100079.83;1681312;83;20528;-75
2021/10/15 05:24:45;;;;;;;;;;;;;;;10.19;100.00;100078.83;1680013;83;21143;-78
2021/10/15 05:27:10;;;;;;;;;;;;;;;10.16;100.00;100085.73;1679612;83;20171;-78
2021/10/15 05:29:38;;;;;;;;;;;;;;;10.16;100.00;100077.82;1680212;85;20293;-81
2021/10/15 05:32:06;;;;;;;;;;;;;;;10.26;100.00;100073.28;1678946;83;20193;-77
2021/10/15 05:34:36;;;;;;;;;;;;;;;10.34;100.00;100072.53;1681477;83;20190;-79
2021/10/15 05:37:05;;;;;;;;;;;;;;;10.39;100.00;100076.84;1686635;83;21124;-80
2021/10/15 05:39:34;;;;;;;;;;;;;;;10.29;100.00;100080.88;1660658;85;20250;-81
2021/10/15 05:42:01;;;;;;;;;;;;;;;10.41;100.00;100079.66;1686587;83;20337;-79
2021/10/15 05:44:27;;;;;;;;;;;;;;;10.30;100.00;100076.42;1687324;84;21103;-81
2021/10/15 05:46:52;;;;;;;;;;;;;;;10.41;100.00;100074.89;1667644;83;20124;-79
2021/10/15 05:49:18;;;;;;;;;;;;;;;10.40;100.00;100075.36;1687196;84;21953;-81
2021/10/15 05:51:47;;;;;;;;;;;;;;;10.44;100.00;100074.58;1659982;85;20519;-82
2021/10/15 05:54:24;;;;;;;;;;;;;;;10.48;100.00;100073.76;1687820;85;20581;-83
2021/10/15 05:56:59;;;;;;;;;;;;;;;10.51;100.00;100070.80;1687345;85;20123;-79
2021/10/15 05:59:14;;;;;;;;;;;;;;;10.51;100.00;100076.08;1682860;84;20126;-81
2021/10/15 06:01:41;;;;;;;;;;;;;;;10.54;100.00;100074.45;1689877;85;21235;-81
2021/10/15 06:14:45;;;;;;;;;;;;;;;10.76;100.00;100083.11;1685202;83;20138;-79
2021/10/15 06:17:17;;;;;;;;;;;;;;;10.74;100.00;100082.45;1686486;83;20365;-80
2021/10/15 06:19:46;;;;;;;;;;;;;;;10.73;100.00;100086.07;1684905;84;20201;-80
2021/10/15 06:22:13;;;;;;;;;;;;;;;10.84;100.00;100080.18;1685050;84;20473;-81
2021/10/15 06:24:40;;;;;;;;;;;;;;;10.79;100.00;100081.98;1664979;85;20191;-80
2021/10/15 06:27:08;;;;;;;;;;;;;;;10.83;100.00;100082.00;1660472;85;21011;-79
2021/10/15 06:29:35;;;;;;;;;;;;;;;10.75;100.00;100073.55;1685766;83;20175;-78
2021/10/15 06:32:01;;;;;;;;;;;;;;;10.77;100.00;100074.21;1684708;83;20172;-79
2021/10/15 06:34:31;;;;;;;;;;;;;;;10.75;100.00;100076.20;1662402;83;20836;-77
2021/10/15 06:37:00;;;;;;;;;;;;;;;10.78;100.00;100078.99;1685950;83;20183;-79
2021/10/15 06:39:26;;;;;;;;;;;;;;;10.78;100.00;100079.84;1684401;83;20520;-80
2021/10/15 06:41:53;;;;;;;;;;;;;;;10.83;100.00;100080.69;1684791;83;20131;-79
2021/10/15 06:44:23;;;;;;;;;;;;;;;10.87;100.00;100077.22;1658440;83;20160;-80
2021/10/15 06:46:49;;;;;;;;;;;;;;;10.96;100.00;100084.19;1685430;83;20158;-80
2021/10/15 06:49:16;;;;;;;;;;;;;;;10.94;100.00;100079.56;1682188;85;20239;-79
2021/10/15 06:51:46;;;;;;;;;;;;;;;10.92;100.00;100086.80;1686655;83;21094;-78
2021/10/15 06:54:12;;;;;;;;;;;;;;;10.99;100.00;100081.22;1684714;83;20508;-79
2021/10/15 06:56:38;;;;;;;;;;;;;;;10.90;100.00;100080.86;1659411;83;20512;-78
2021/10/15 06:59:06;;;;;;;;;;;;;;;10.94;100.00;100084.85;1685584;83;20178;-78
2021/10/15 07:01:32;;;;;;;;;;;;;;;10.95;100.00;100080.73;1684970;83;20519;-80
2021/10/15 07:04:01;;;;;;;;;;;;;;;10.97;100.00;100080.56;1687022;83;21090;-80
2021/10/15 07:06:28;;;;;;;;;;;;;;;11.09;100.00;100085.89;1683724;83;20144;-79
2021/10/15 07:08:55;;;;;;;;;;;;;;;10.99;100.00;100092.30;1687055;83;20192;-78
2021/10/15 07:11:20;;;;;;;;;;;;;;;11.06;100.00;100091.50;1686865;83;20932;-78
2021/10/15 07:13:46;;;;;;;;;;;;;;;11.10;100.00;100086.20;1690477;83;20182;-78
2021/10/15 07:16:13;;;;;;;;;;;;;;;11.11;100.00;100086.55;1687506;83;21090;-78
2021/10/15 07:18:42;;;;;;;;;;;;;;;11.17;100.00;100081.12;1684936;83;20144;-77
2021/10/15 07:21:10;;;;;;;;;;;;;;;11.23;100.00;100086.23;1686965;83;20224;-77
2021/10/15 07:23:38;;;;;;;;;;;;;;;11.29;100.00;100091.69;1687776;83;20186;-79
2021/10/15 07:26:03;;;;;;;;;;;;;;;11.39;100.00;100085.42;1687842;83;20199;-79
2021/10/15 07:28:29;;;;;;;;;;;;;;;11.34;100.00;100092.53;1686575;83;21026;-80
2021/10/15 07:30:55;;;;;;;;;;;;;;;11.37;100.00;100089.55;1686806;83;20198;-81
2021/10/15 07:33:21;;;;;;;;;;;;;;;11.43;100.00;100091.55;1683868;83;20799;-78
2021/10/15 07:35:46;;;;;;;;;;;;;;;11.36;100.00;100090.56;1690261;83;20630;-79
2021/10/15 07:38:14;;;;;;;;;;;;;;;11.41;100.00;100093.54;1696408;83;20142;-79
2021/10/15 07:40:39;;;;;;;;;;;;;;;11.29;100.00;100100.12;1693166;83;21073;-81
2021/10/15 07:43:07;;;;;;;;;;;;;;;11.17;100.00;100097.45;1691898;83;20930;-79
2021/10/15 07:45:38;;;;;;;;;;;;;;;11.23;100.00;100091.52;1691745;83;20120;-83
2021/10/15 07:48:04;;;;;;;;;;;;;;;11.32;100.00;100093.19;1691706;83;20159;-80
2021/10/15 07:50:31;;;;;;;;;;;;;;;11.38;100.00;100100.98;1688566;83;20198;-81
2021/10/15 07:52:57;;;;;;;;;;;;;;;11.43;100.00;100095.52;1672754;84;21200;-83
2021/10/15 07:55:22;;;;;;;;;;;;;;;11.43;100.00;100099.98;1670796;84;20194;-79
2021/10/15 07:57:52;;;;;;;;;;;;;;;11.39;100.00;100107.43;1696595;83;20138;-79
2021/10/15 08:00:18;;;;;;;;;;;;;;;11.45;100.00;100098.84;1693249;83;20234;-80
2021/10/15 08:02:46;;;;;;;;;;;;;;;11.54;100.00;100100.98;1671398;84;20168;-80
2021/10/15 08:05:13;;;;;;;;;;;;;;;11.45;100.00;100098.84;1648510;85;20138;-80
2021/10/15 08:07:41;;;;;;;;;;;;;;;11.58;100.00;100093.06;1676551;84;20140;-80
2021/10/15 08:10:09;;;;;;;;;;;;;;;11.50;100.00;100095.20;1676014;85;20485;-80
2021/10/15 08:12:37;;;;;;;;;;;;;;;11.55;100.00;100099.19;1679912;84;20144;-80
2021/10/15 08:15:05;;;;;;;;;;;;;;;11.44;100.00;100100.33;1677617;84;20187;-78
2021/10/15 08:17:35;;;;;;;;;;;;;;;11.66;100.00;100092.25;1650242;85;22507;-81
2021/10/15 08:20:01;;;;;;;;;;;;;;;11.63;100.00;100093.39;1651809;85;20165;-81
2021/10/15 08:22:28;;;;;;;;;;;;;;;11.70;100.00;100076.39;1654029;85;20180;-79
2021/10/15 08:24:57;;;;;;;;;;;;;;;11.77;100.00;100080.52;1658357;85;20189;-80
2021/10/15 08:27:25;;;;;;;;;;;;;;;11.88;100.00;100080.67;1656418;85;20255;-79
2021/10/15 08:29:54;;;;;;;;;;;;;;;11.83;100.00;100084.63;1628416;85;21087;-79
2021/10/15 08:32:26;;;;;;;;;;;;;;;11.92;100.00;100086.83;1652512;85;20208;-80
2021/10/15 08:34:53;;;;;;;;;;;;;;;11.84;100.00;100084.98;1648730;85;20216;-79
2021/10/15 08:37:18;;;;;;;;;;;;;;;11.80;100.00;100080.18;1641995;85;20273;-78
2021/10/15 08:39:44;;;;;;;;;;;;;;;11.98;100.00;100078.72;1643919;85;20206;-79
2021/10/15 08:42:10;;;;;;;;;;;;;;;11.98;100.00;100081.37;1642740;85;21055;-79
2021/10/15 08:44:40;;;;;;;;;;;;;;;12.02;99.74;100079.55;1642851;85;20323;-80
2021/10/15 08:47:12;;;;;;;;;;;;;;;11.96;100.00;100079.37;1644399;85;20512;-80
2021/10/15 08:49:41;;;;;;;;;;;;;;;12.07;98.74;100079.02;1646277;85;20221;-77
2021/10/15 08:52:10;;;;;;;;;;;;;;;12.13;99.29;100078.85;1646893;85;20175;-78
2021/10/15 08:54:40;;;;;;;;;;;;;;;12.25;98.51;100083.31;1639146;85;21025;-78
2021/10/15 08:57:07;;;;;;;;;;;;;;;12.31;97.96;100068.07;1643964;85;20197;-79
2021/10/15 08:59:41;;;;;;;;;;;;;;;12.42;97.37;100069.03;1645281;85;20486;-78
2021/10/15 09:02:17;;;;;;;;;;;;;;;12.46;97.73;100058.91;1642905;85;20177;-78
2021/10/15 09:04:51;;;;;;;;;;;;;;;12.33;96.69;100060.77;1642154;85;20542;-77
2021/10/15 09:07:20;;;;;;;;;;;;;;;12.46;96.88;100070.35;1645033;85;20891;-81
2021/10/15 09:09:47;;;;;;;;;;;;;;;12.30;96.23;100065.09;1613405;85;20127;-78
2021/10/15 09:12:16;;;;;;;;;;;;;;;12.36;96.12;100061.76;1613351;86;20138;-81
2021/10/15 09:14:46;;;;;;;;;;;;;;;12.42;96.09;100057.62;1666476;84;20244;-79
2021/10/15 09:17:25;;;;;;;;;;;;;;;12.45;95.59;100052.80;1673931;84;20135;-77
2021/10/15 09:19:50;;;;;;;;;;;;;;;12.42;95.26;100059.75;1667538;84;20169;-77
2021/10/15 09:22:25;;;;;;;;;;;;;;;12.32;95.46;100048.52;1644474;85;20150;-78
2021/10/15 09:25:07;;;;;;;;;;;;;;;12.54;94.89;100060.23;1683008;83;20685;-79
2021/10/15 09:27:38;;;;;;;;;;;;;;;12.58;94.22;100062.84;1682991;84;20178;-79
2021/10/15 09:30:15;;;;;;;;;;;;;;;12.62;93.30;100051.42;1686026;83;20213;-78
2021/10/15 09:32:53;;;;;;;;;;;;;;;12.65;93.39;100055.87;1661524;85;20161;-78
2021/10/15 09:35:23;;;;;;;;;;;;;;;12.59;93.41;100058.39;1665281;84;20186;-78
2021/10/15 09:37:54;;;;;;;;;;;;;;;12.65;93.62;100065.65;1678618;83;20140;-80
2021/10/15 09:40:20;;;;;;;;;;;;;;;12.80;93.65;100049.83;1657754;84;20278;-79
2021/10/15 09:42:50;;;;;;;;;;;;;;;12.93;92.71;100056.23;1646177;85;20184;-77
2021/10/15 09:45:21;;;;;;;;;;;;;;;12.90;91.92;100048.62;1668752;84;21227;-78
2021/10/15 09:47:50;;;;;;;;;;;;;;;12.96;91.88;100051.09;1664453;84;20208;-78
2021/10/15 09:50:17;;;;;;;;;;;;;;;13.03;91.36;100045.91;1669002;85;20477;-77
2021/10/15 09:52:49;;;;;;;;;;;;;;;13.20;90.58;100043.47;1667634;84;20219;-78
2021/10/15 09:55:22;;;;;;;;;;;;;;;13.31;90.71;100036.12;1641213;85;20511;-80
2021/10/15 09:57:52;;;;;;;;;;;;;;;13.47;90.02;100041.34;1665732;84;20528;-77
2021/10/15 10:00:22;;;;;;;;;;;;;;;13.43;89.06;100040.86;1666941;84;20109;-76
2021/10/15 10:02:48;;;;;;;;;;;;;;;13.48;88.74;100040.84;1669331;84;20175;-77
2021/10/15 10:05:15;;;;;;;;;;;;;;;13.48;88.36;100033.69;1667876;84;21234;-79
2021/10/15 10:07:42;;;;;;;;;;;;;;;13.45;87.84;100035.38;1620056;86;20979;-79
2021/10/15 10:10:08;;;;;;;;;;;;;;;13.50;87.63;100046.30;1667808;84;21030;-80
2021/10/15 10:12:37;;;;;;;;;;;;;;;13.50;86.99;100027.73;1668013;84;20206;-78
2021/10/15 10:15:05;;;;;;;;;;;;;;;13.70;87.03;100021.91;1665665;84;20208;-78
2021/10/15 10:17:37;;;;;;;;;;;;;;;13.77;86.15;100016.21;1640938;85;21783;-78
2021/10/15 10:20:07;;;;;;;;;;;;;;;13.76;85.14;100010.57;1669852;84;20196;-78
2021/10/15 10:22:35;;;;;;;;;;;;;;;13.64;84.11;100012.34;1636385;85;21172;-81
2021/10/15 10:25:04;;;;;;;;;;;;;;;13.56;84.93;100016.37;1667953;84;20150;-81
2021/10/15 10:27:35;;;;;;;;;;;;;;;13.62;85.07;100007.70;1663740;84;21323;-81
2021/10/15 10:30:01;;;;;;;;;;;;;;;13.58;84.13;100013.06;1684915;83;20262;-81
2021/10/15 10:32:28;;;;;;;;;;;;;;;13.57;84.81;100010.07;1683686;83;20208;-82
2021/10/15 10:34:55;;;;;;;;;;;;;;;13.56;85.33;100009.73;1684760;83;39343;-82
2021/10/15 10:37:23;;;;;;;;;;;;;;;13.57;85.02;100010.07;1681823;83;20899;-82
2021/10/15 10:40:04;;;;;;;;;;;;;;;13.64;85.19;100007.52;1682982;83;20634;-81
2021/10/15 10:42:30;;;;;;;;;;;;;;;13.68;84.75;100010.66;1683746;83;20194;-82
2021/10/15 10:45:03;;;;;;;;;;;;;;;13.83;84.71;100004.36;1680619;83;20139;-83
2021/10/15 10:47:28;;;;;;;;;;;;;;;14.11;83.88;100004.27;1680430;83;21956;-81
2021/10/15 10:50:05;;;;;;;;;;;;;;;14.05;84.02;99997.02;1682939;83;20172;-81
2021/10/15 10:52:33;;;;;;;;;;;;;;;14.25;83.38;100011.39;1681553;83;20544;-81
2021/10/15 10:55:01;;;;;;;;;;;;;;;14.31;83.52;99998.70;1684294;83;20262;-78
2021/10/15 10:57:28;;;;;;;;;;;;;;;14.54;83.03;100003.06;1681249;83;20213;-79
2021/10/15 11:00:13;;;;;;;;;;;;;;;14.64;82.28;99994.85;1660286;83;21177;-78
2021/10/15 11:02:46;;;;;;;;;;;;;;;14.80;81.52;99999.92;1680523;83;20158;-79
2021/10/15 11:05:18;;;;;;;;;;;;;;;14.79;79.61;99992.14;1686217;83;20165;-79
2021/10/15 11:07:47;;;;;;;;;;;;;;;14.90;79.55;99989.01;1678958;83;20162;-78
2021/10/15 11:10:26;;;;;;;;;;;;;;;14.82;78.61;99986.45;1658816;85;20227;-79
2021/10/15 11:12:57;;;;;;;;;;;;;;;14.49;77.87;100004.13;1686578;83;21139;-76
2021/10/15 11:15:22;;;;;;;;;;;;;;;14.50;78.65;99988.52;1682446;83;20219;-78
2021/10/15 11:17:48;;;;;;;;;;;;;;;14.57;78.57;99983.28;1680036;83;20682;-78
2021/10/15 11:20:25;;;;;;;;;;;;;;;14.50;78.29;99976.56;1682363;83;21351;-79
2021/10/15 11:23:05;;;;;;;;;;;;;;;14.45;78.54;99978.45;1684747;83;20527;-78
2021/10/15 11:25:45;;;;;;;;;;;;;;;14.44;78.43;99973.31;1683281;83;21042;-77
2021/10/15 11:28:16;;;;;;;;;;;;;;;14.44;78.24;99965.34;1684708;83;20197;-77
2021/10/15 11:30:44;;;;;;;;;;;;;;;14.53;77.45;99965.56;1685410;83;20658;-77
2021/10/15 11:33:12;;;;;;;;;;;;;;;14.40;77.56;99962.73;1683913;83;20199;-78
2021/10/15 11:35:40;;;;;;;;;;;;;;;14.45;77.56;99962.98;1681670;83;20124;-79
2021/10/15 11:38:13;;;;;;;;;;;;;;;14.62;78.05;99963.63;1685790;83;22105;-79
2021/10/15 11:40:45;;;;;;;;;;;;;;;14.58;76.62;99963.67;1682622;83;21016;-79
2021/10/15 11:43:22;;;;;;;;;;;;;;;14.68;76.40;99958.41;1685451;83;20179;-79
2021/10/15 11:45:48;;;;;;;;;;;;;;;14.84;76.62;99956.53;1686129;83;20103;-79
2021/10/15 11:48:25;;;;;;;;;;;;;;;14.87;75.83;99953.50;1684411;83;20202;-79
2021/10/15 11:50:58;;;;;;;;;;;;;;;14.91;75.75;99965.38;1684922;83;20161;-78
2021/10/15 11:53:28;;;;;;;;;;;;;;;14.88;75.83;99948.47;1684468;85;20602;-79
2021/10/15 11:55:55;;;;;;;;;;;;;;;14.86;75.87;99951.84;1684604;83;20206;-79
2021/10/15 11:58:33;;;;;;;;;;;;;;;14.71;75.56;99946.56;1685274;83;20218;-79
2021/10/15 12:01:08;;;;;;;;;;;;;;;14.62;76.17;99938.38;1685045;83;20490;-78
2021/10/15 12:03:52;;;;;;;;;;;;;;;14.60;76.53;99949.20;1686985;83;21255;-79
2021/10/15 12:06:27;;;;;;;;;;;;;;;14.81;76.58;99939.63;1683091;83;21132;-78
2021/10/15 12:09:03;;;;;;;;;;;;;;;15.03;75.58;99939.93;1656405;85;20119;-78
2021/10/15 12:11:41;;;;;;;;;;;;;;;15.16;75.17;99931.76;1685081;83;20246;-80
2021/10/15 12:14:12;;;;;;;;;;;;;;;14.99;74.08;99934.70;1683747;83;20531;-80
2021/10/15 12:16:47;;;;;;;;;;;;;;;15.02;74.18;99926.34;1684524;85;21102;-81
2021/10/15 12:19:25;;;;;;;;;;;;;;;15.03;74.27;99923.97;1684699;83;20127;-79
2021/10/15 12:21:53;;;;;;;;;;;;;;;14.94;73.86;99934.94;1683641;85;20213;-80
2021/10/15 12:24:28;;;;;;;;;;;;;;;14.83;73.16;99918.98;1685598;83;20172;-79
2021/10/15 12:27:03;;;;;;;;;;;;;;;14.68;73.57;99933.16;1686857;83;20192;-80
2021/10/15 12:29:29;;;;;;;;;;;;;;;14.67;73.97;99931.50;1682482;83;22017;-79
2021/10/15 12:32:22;;;;;;;;;;;;;;;14.68;73.92;99933.16;1684265;83;20727;-81
2021/10/15 12:34:59;;;;;;;;;;;;;;;14.61;74.97;99938.90;1682975;83;20243;-80
2021/10/15 12:37:34;;;;;;;;;;;;;;;14.83;74.72;99941.58;1685659;83;20826;-79
2021/10/15 12:40:28;;;;;;;;;;;;;;;15.16;73.73;99934.41;1684905;83;20381;-80
2021/10/15 12:43:04;;;;;;;;;;;;;;;15.32;73.09;99920.85;1684895;83;20931;-80
2021/10/15 12:45:44;;;;;;;;;;;;;;;15.60;71.70;99928.02;1686465;83;20146;-79
2021/10/15 12:48:18;;;;;;;;;;;;;;;15.70;70.69;99914.34;1683737;83;20743;-81
2021/10/15 12:51:02;;;;;;;;;;;;;;;15.92;69.51;99901.80;1684582;83;20186;-80
2021/10/15 12:53:39;;;;;;;;;;;;;;;16.18;69.17;99904.28;1684887;83;20164;-80